createdAt,value
2018-08-03T00:01:28.359Z,5.28
2018-08-03T00:04:03.471Z,4.40
2018-08-03T00:06:37.702Z,6.85
2018-08-03T00:09:12.395Z,5.40
2018-08-03T00:11:48.134Z,5.17
2018-08-03T00:14:22.892Z,3.80
2018-08-03T00:16:57.818Z,7.28
2018-08-03T00:19:53.345Z,4.00
2018-08-03T00:22:37.329Z,5.03
2018-08-03T00:25:12.164Z,8.90
2018-08-03T00:27:47.899Z,4.00
2018-08-03T00:30:23.623Z,5.00
2018-08-03T00:32:58.368Z,6.53
2018-08-03T00:35:33.116Z,8.00
2018-08-03T00:38:07.896Z,7.20
2018-08-03T00:40:42.584Z,9.18
2018-08-03T00:43:17.305Z,8.53
2018-08-03T00:45:52.048Z,7.78
2018-08-03T00:48:26.795Z,7.17
2018-08-03T00:51:01.503Z,8.55
2018-08-03T00:53:36.223Z,5.90
2018-08-03T00:56:10.935Z,6.92
2018-08-03T00:58:46.738Z,11.80
2018-08-03T01:01:21.559Z,7.03
2018-08-03T01:03:56.305Z,9.18
2018-08-03T01:06:32.014Z,7.10
2018-08-03T01:09:09.739Z,8.93
2018-08-03T01:11:44.451Z,6.55
2018-08-03T01:14:19.210Z,12.60
2018-08-03T01:16:53.889Z,7.25
2018-08-03T01:19:28.151Z,9.70
2018-08-03T01:22:02.855Z,7.87
2018-08-03T01:24:37.673Z,10.82
2018-08-03T01:27:12.440Z,10.55
2018-08-03T01:29:47.139Z,9.30
2018-08-03T01:32:21.887Z,8.00
2018-08-03T01:34:56.597Z,10.78
2018-08-03T01:37:31.331Z,8.93
2018-08-03T01:40:07.380Z,10.75
2018-08-03T01:42:42.100Z,12.25
2018-08-03T01:45:16.813Z,9.83
2018-08-03T01:47:51.667Z,10.13
2018-08-03T01:50:26.430Z,7.87
2018-08-03T01:53:01.170Z,8.15
2018-08-03T01:55:36.134Z,7.47
2018-08-03T01:58:10.846Z,9.98
2018-08-03T02:00:45.610Z,10.40
2018-08-03T02:03:20.394Z,9.25
2018-08-03T02:05:55.360Z,10.72
2018-08-03T02:08:30.110Z,8.58
2018-08-03T02:11:04.818Z,7.00
2018-08-03T02:13:39.514Z,11.10
2018-08-03T02:16:14.219Z,10.20
2018-08-03T02:18:48.971Z,9.90
2018-08-03T02:21:23.707Z,8.08
2018-08-03T02:23:58.433Z,8.83
2018-08-03T02:26:33.170Z,9.83
2018-08-03T02:29:07.918Z,13.72
2018-08-03T02:31:42.626Z,10.55
2018-08-03T02:34:17.386Z,7.40
2018-08-03T02:36:52.098Z,6.33
2018-08-03T02:39:26.872Z,8.23
2018-08-03T02:42:01.112Z,8.38
2018-08-03T02:44:35.900Z,8.40
2018-08-03T02:47:11.130Z,7.53
2018-08-03T02:49:45.873Z,8.80
2018-08-03T02:52:20.572Z,6.03
2018-08-03T02:54:55.423Z,6.72
2018-08-03T02:57:29.623Z,8.45
2018-08-03T03:00:05.110Z,5.53
2018-08-03T03:02:39.951Z,6.20
2018-08-03T03:05:14.731Z,7.35
2018-08-03T03:07:48.941Z,6.67
2018-08-03T03:10:28.565Z,9.83
2018-08-03T03:13:03.435Z,8.03
2018-08-03T03:15:38.207Z,7.33
2018-08-03T03:18:12.910Z,7.12
2018-08-03T03:20:47.589Z,9.93
2018-08-03T03:23:22.820Z,7.42
2018-08-03T03:25:57.486Z,7.72
2018-08-03T03:28:32.217Z,7.08
2018-08-03T03:31:06.947Z,7.47
2018-08-03T03:33:41.675Z,8.63
2018-08-03T03:36:16.368Z,12.60
2018-08-03T03:38:51.121Z,10.08
2018-08-03T03:41:25.810Z,8.80
2018-08-03T03:44:00.525Z,8.63
2018-08-03T03:46:34.926Z,11.33
2018-08-03T03:49:10.696Z,8.70
2018-08-03T03:51:45.351Z,8.63
2018-08-03T03:54:21.118Z,12.23
2018-08-03T03:56:55.824Z,12.70
2018-08-03T03:59:30.571Z,8.78
2018-08-03T04:02:05.654Z,9.75
2018-08-03T04:04:41.411Z,11.45
2018-08-03T04:07:17.115Z,8.28
2018-08-03T04:09:51.836Z,11.08
2018-08-03T04:12:26.528Z,11.35
2018-08-03T04:15:02.420Z,8.25
2018-08-03T04:17:37.099Z,8.05
2018-08-03T04:20:11.809Z,10.00
2018-08-03T04:22:46.524Z,9.33
2018-08-03T04:25:21.260Z,7.78
2018-08-03T04:27:55.477Z,10.15
2018-08-03T04:30:29.740Z,10.08
2018-08-03T04:33:04.467Z,11.20
2018-08-03T04:35:39.576Z,15.25
2018-08-03T04:38:14.283Z,11.10
2018-08-03T04:40:49.265Z,9.43
2018-08-03T04:43:24.175Z,16.60
2018-08-03T04:45:58.954Z,15.00
2018-08-03T04:48:33.722Z,12.50
2018-08-03T04:51:08.626Z,11.08
2018-08-03T04:53:44.373Z,8.78
2018-08-03T04:56:20.111Z,9.50
2018-08-03T04:58:54.775Z,7.90
2018-08-03T05:01:29.010Z,7.83
2018-08-03T05:04:21.625Z,8.08
2018-08-03T05:07:03.949Z,7.83
2018-08-03T05:09:50.378Z,8.13
2018-08-03T05:15:24.964Z,8.60
2018-08-03T05:18:14.048Z,8.77
2018-08-03T05:20:49.652Z,9.30
2018-08-03T05:23:23.890Z,6.85
2018-08-03T05:25:58.267Z,7.17
2018-08-03T05:28:32.734Z,9.17
2018-08-03T05:31:07.770Z,6.70
2018-08-03T05:33:42.239Z,11.07
2018-08-03T05:36:16.675Z,7.30
2018-08-03T05:38:51.555Z,6.42
2018-08-03T05:41:25.987Z,7.67
2018-08-03T05:44:00.411Z,6.80
2018-08-03T05:46:35.544Z,6.23
2018-08-03T05:49:10.983Z,6.20
2018-08-03T05:51:45.398Z,9.17
2018-08-03T05:54:19.830Z,4.97
2018-08-03T05:56:54.262Z,10.23
2018-08-03T05:59:28.747Z,5.17
2018-08-03T06:02:04.210Z,6.93
2018-08-03T06:04:38.695Z,5.30
2018-08-03T06:07:12.623Z,7.40
2018-08-03T06:09:48.144Z,5.50
2018-08-03T06:12:22.584Z,6.73
2018-08-03T06:14:57.116Z,4.63
2018-08-03T06:17:31.508Z,3.03
2018-08-03T06:20:07.429Z,5.60
2018-08-03T06:22:42.363Z,3.53
2018-08-03T06:25:17.849Z,3.17
2018-08-03T06:27:52.323Z,3.77
2018-08-03T06:30:27.804Z,4.60
2018-08-03T06:33:02.268Z,4.40
2018-08-03T06:35:36.683Z,4.43
2018-08-03T06:38:11.190Z,3.70
2018-08-03T06:40:45.711Z,4.37
2018-08-03T06:43:20.174Z,3.77
2018-08-03T06:45:54.652Z,3.93
2018-08-03T06:48:29.138Z,4.23
2018-08-03T06:51:03.683Z,8.83
2018-08-03T06:53:38.088Z,7.00
2018-08-03T06:56:12.484Z,3.87
2018-08-03T06:58:46.941Z,7.47
2018-08-03T07:01:22.350Z,9.87
2018-08-03T07:03:56.798Z,5.23
2018-08-03T07:06:31.228Z,5.47
2018-08-03T07:09:08.376Z,8.63
2018-08-03T07:11:42.759Z,6.93
2018-08-03T07:14:17.186Z,8.67
2018-08-03T07:16:51.675Z,5.37
2018-08-03T07:19:27.179Z,4.20
2018-08-03T07:22:02.623Z,2.87
2018-08-03T07:24:37.043Z,4.77
2018-08-03T07:27:11.479Z,2.23
2018-08-03T07:29:46.288Z,6.40
2018-08-03T07:32:21.779Z,4.57
2018-08-03T07:34:56.227Z,3.53
2018-08-03T07:37:30.655Z,6.70
2018-08-03T07:40:05.110Z,3.97
2018-08-03T07:42:39.563Z,2.20
2018-08-03T07:45:13.726Z,2.67
2018-08-03T07:47:48.141Z,2.87
2018-08-03T07:50:22.537Z,5.40
2018-08-03T07:52:56.966Z,5.00
2018-08-03T07:55:31.383Z,3.20
2018-08-03T07:58:05.907Z,2.73
2018-08-03T08:00:40.325Z,2.47
2018-08-03T08:03:14.836Z,3.80
2018-08-03T08:05:49.499Z,1.63
2018-08-03T08:08:23.924Z,1.90
2018-08-03T08:10:58.591Z,4.67
2018-08-03T08:13:33.018Z,5.10
2018-08-03T08:16:07.523Z,10.33
2018-08-03T08:18:41.461Z,6.27
2018-08-03T08:21:16.843Z,3.70
2018-08-03T08:23:51.328Z,5.37
2018-08-03T08:26:25.742Z,8.17
2018-08-03T08:29:00.195Z,3.53
2018-08-03T08:31:34.858Z,2.33
2018-08-03T08:34:09.427Z,2.80
2018-08-03T08:36:43.839Z,4.37
2018-08-03T08:39:18.278Z,3.93
2018-08-03T08:41:52.700Z,4.67
2018-08-03T08:44:27.122Z,7.53
2018-08-03T08:47:02.561Z,6.70
2018-08-03T08:49:37.960Z,5.57
2018-08-03T08:52:12.448Z,3.70
2018-08-03T08:54:46.385Z,6.27
2018-08-03T08:57:20.964Z,6.57
2018-08-03T08:59:55.319Z,3.40
2018-08-03T09:02:30.770Z,8.40
2018-08-03T09:05:05.264Z,5.17
2018-08-03T09:07:39.220Z,12.00
2018-08-03T09:10:13.839Z,5.43
2018-08-03T09:12:53.749Z,7.63
2018-08-03T09:15:44.881Z,4.03
2018-08-03T09:18:21.672Z,4.70
2018-08-03T09:20:56.272Z,6.77
2018-08-03T09:23:31.802Z,3.23
2018-08-03T09:26:05.734Z,3.70
2018-08-03T09:28:40.250Z,4.57
2018-08-03T09:31:15.012Z,6.13
2018-08-03T09:33:50.487Z,6.33
2018-08-03T09:36:24.437Z,7.10
2018-08-03T09:38:59.876Z,4.57
2018-08-03T09:41:35.962Z,7.27
2018-08-03T09:44:10.447Z,2.57
2018-08-03T09:46:45.383Z,2.30
2018-08-03T09:49:19.960Z,4.73
2018-08-03T09:51:54.615Z,2.80
2018-08-03T09:54:29.145Z,2.80
2018-08-03T09:57:04.115Z,4.70
2018-08-03T09:59:40.665Z,3.27
2018-08-03T10:02:15.207Z,5.67
2018-08-03T10:04:55.940Z,3.13
2018-08-03T10:07:31.716Z,8.53
2018-08-03T10:10:06.718Z,3.50
2018-08-03T10:12:41.192Z,1.60
2018-08-03T10:15:15.590Z,5.20
2018-08-03T10:17:50.048Z,4.03
2018-08-03T10:20:24.001Z,3.83
2018-08-03T10:22:58.758Z,5.37
2018-08-03T10:25:33.194Z,1.70
2018-08-03T10:28:07.621Z,5.70
2018-08-03T10:30:42.079Z,3.83
2018-08-03T10:33:17.495Z,5.87
2018-08-03T10:35:51.885Z,4.67
2018-08-03T10:38:27.335Z,4.30
2018-08-03T10:41:01.742Z,2.30
2018-08-03T10:43:36.232Z,3.73
2018-08-03T10:46:11.211Z,3.43
2018-08-03T10:48:54.184Z,3.87
2018-08-03T10:51:28.763Z,2.30
2018-08-03T10:54:03.378Z,3.27
2018-08-03T10:56:37.314Z,4.17
2018-08-03T10:59:12.764Z,3.60
2018-08-03T11:01:56.193Z,5.33
2018-08-03T11:04:30.730Z,2.77
2018-08-03T11:07:05.181Z,3.20
2018-08-03T11:09:39.594Z,2.13
2018-08-03T11:12:13.984Z,5.37
2018-08-03T11:14:48.423Z,4.33
2018-08-03T11:17:22.927Z,3.50
2018-08-03T11:19:57.365Z,5.97
2018-08-03T11:22:31.781Z,6.00
2018-08-03T11:25:06.894Z,5.00
2018-08-03T11:27:41.817Z,3.77
2018-08-03T11:30:17.573Z,5.47
2018-08-03T11:32:51.980Z,4.50
2018-08-03T11:35:26.438Z,6.27
2018-08-03T11:38:00.915Z,6.87
2018-08-03T11:40:35.351Z,3.47
2018-08-03T11:43:09.819Z,3.43
2018-08-03T11:45:44.263Z,4.00
2018-08-03T11:48:18.702Z,4.43
2018-08-03T11:50:53.379Z,2.83
2018-08-03T11:53:27.781Z,5.73
2018-08-03T11:56:02.196Z,5.33
2018-08-03T11:58:36.616Z,2.90
2018-08-03T12:01:11.048Z,5.30
2018-08-03T12:03:45.475Z,8.40
2018-08-03T12:06:19.909Z,2.57
2018-08-03T12:08:54.352Z,2.43
2018-08-03T12:11:28.776Z,3.63
2018-08-03T12:14:04.233Z,8.20
2018-08-03T12:16:38.614Z,4.40
2018-08-03T12:19:13.016Z,3.90
2018-08-03T12:21:48.460Z,2.20
2018-08-03T12:24:22.921Z,3.57
2018-08-03T12:26:57.323Z,5.03
2018-08-03T12:29:31.760Z,5.43
2018-08-03T12:32:06.432Z,3.63
2018-08-03T12:34:41.106Z,5.87
2018-08-03T12:37:15.514Z,4.23
2018-08-03T12:39:49.955Z,5.20
2018-08-03T12:42:23.922Z,5.53
2018-08-03T12:44:58.338Z,4.77
2018-08-03T12:47:32.730Z,4.03
2018-08-03T12:50:07.121Z,3.97
2018-08-03T12:52:41.774Z,3.97
2018-08-03T12:55:16.357Z,2.87
2018-08-03T12:57:52.801Z,5.77
2018-08-03T13:00:28.264Z,2.97
2018-08-03T13:03:02.684Z,5.47
2018-08-03T13:05:37.085Z,3.10
2018-08-03T13:08:12.696Z,6.63
2018-08-03T13:10:46.718Z,4.77
2018-08-03T13:13:21.204Z,4.20
2018-08-03T13:15:55.744Z,7.13
2018-08-03T13:18:30.163Z,3.83
2018-08-03T13:21:41.150Z,9.83
2018-08-03T13:24:15.133Z,3.87
2018-08-03T13:26:49.519Z,4.77
2018-08-03T13:29:25.499Z,5.53
2018-08-03T13:32:00.689Z,2.77
2018-08-03T13:34:35.842Z,3.87
2018-08-03T13:37:12.378Z,2.37
2018-08-03T13:39:47.218Z,3.77
2018-08-03T13:42:22.129Z,5.57
2018-08-03T13:45:06.863Z,2.27
2018-08-03T13:47:43.595Z,6.57
2018-08-03T13:50:18.683Z,5.27
2018-08-03T13:53:03.639Z,2.20
2018-08-03T14:01:44.152Z,4.53
2018-08-03T14:04:38.527Z,4.37
2018-08-03T14:07:34.579Z,2.57
2018-08-03T14:10:16.242Z,3.37
2018-08-03T14:16:11.502Z,4.20
2018-08-03T14:18:57.514Z,9.27
2018-08-03T14:21:43.618Z,2.83
2018-08-03T14:24:35.449Z,3.67
2018-08-03T14:27:22.768Z,6.03
2018-08-03T14:30:03.973Z,4.13
2018-08-03T14:32:48.208Z,2.93
2018-08-03T14:35:29.237Z,5.50
2018-08-03T14:38:08.726Z,3.67
2018-08-03T14:40:51.312Z,3.27
2018-08-03T14:43:39.392Z,3.13
2018-08-03T14:46:30.460Z,2.90
2018-08-03T14:52:30.347Z,3.27
2018-08-03T14:55:16.331Z,2.60
2018-08-03T14:57:55.680Z,8.47
2018-08-03T15:00:39.836Z,7.47
2018-08-03T15:03:30.131Z,3.37
2018-08-03T15:06:16.304Z,6.40
2018-08-03T15:08:56.474Z,2.73
2018-08-03T15:14:25.621Z,5.30
2018-08-03T15:17:11.260Z,7.33
2018-08-03T15:19:57.840Z,3.93
2018-08-03T15:22:43.483Z,7.20
2018-08-03T15:25:23.232Z,4.43
2018-08-03T15:28:11.317Z,3.70
2018-08-03T15:30:57.669Z,5.33
2018-08-03T15:33:49.849Z,8.40
2018-08-03T15:39:37.750Z,2.60
2018-08-03T15:42:27.071Z,4.37
2018-08-03T15:45:02.870Z,6.87
2018-08-03T15:47:39.236Z,3.57
2018-08-03T15:50:19.200Z,6.90
2018-08-03T15:52:54.331Z,4.20
2018-08-03T15:55:28.714Z,5.73
2018-08-03T15:58:03.174Z,5.33
2018-08-03T16:00:37.602Z,3.43
2018-08-03T16:03:12.048Z,2.20
2018-08-03T16:05:47.030Z,4.80
2018-08-03T16:08:21.553Z,2.87
2018-08-03T16:10:58.483Z,5.70
2018-08-03T16:13:32.429Z,6.30
2018-08-03T16:16:08.025Z,2.80
2018-08-03T16:18:42.630Z,3.80
2018-08-03T16:21:17.924Z,4.97
2018-08-03T16:23:53.759Z,6.47
2018-08-03T16:26:33.273Z,4.10
2018-08-03T16:29:07.729Z,9.23
2018-08-03T16:31:46.056Z,2.93
2018-08-03T16:34:23.159Z,3.80
2018-08-03T16:36:57.799Z,4.13
2018-08-03T16:39:32.212Z,4.53
2018-08-03T16:42:06.714Z,7.07
2018-08-03T16:44:42.140Z,5.67
2018-08-03T16:47:16.623Z,4.97
2018-08-03T16:49:51.095Z,9.47
2018-08-03T16:52:25.543Z,4.17
2018-08-03T16:54:59.986Z,4.77
2018-08-03T16:57:34.472Z,3.40
2018-08-03T17:00:09.879Z,4.37
2018-08-03T17:02:48.216Z,5.07
2018-08-03T17:05:25.956Z,2.77
2018-08-03T17:08:01.104Z,4.63
2018-08-03T17:10:36.556Z,3.47
2018-08-03T17:13:11.086Z,3.60
2018-08-03T17:15:53.885Z,3.17
2018-08-03T17:18:28.729Z,3.43
2018-08-03T17:21:04.291Z,2.70
2018-08-03T17:23:41.645Z,8.43
2018-08-03T17:26:18.293Z,3.30
2018-08-03T17:28:56.379Z,2.97
2018-08-03T17:31:31.104Z,5.92
2018-08-03T17:34:05.681Z,3.37
2018-08-03T17:36:40.162Z,3.80
2018-08-03T17:39:14.874Z,8.88
2018-08-03T17:41:49.599Z,5.20
2018-08-03T17:44:24.278Z,5.83
2018-08-03T17:46:58.728Z,3.63
2018-08-03T17:49:33.112Z,5.30
2018-08-03T17:52:08.948Z,4.40
2018-08-03T17:54:43.684Z,4.58
2018-08-03T17:57:18.344Z,5.37
2018-08-03T17:59:52.999Z,3.80
2018-08-03T18:02:28.297Z,3.45
2018-08-03T18:05:02.993Z,6.25
2018-08-03T18:07:37.345Z,3.65
2018-08-03T18:10:12.106Z,3.08
2018-08-03T18:12:46.881Z,7.80
2018-08-03T18:15:21.602Z,6.15
2018-08-03T18:17:56.481Z,5.90
2018-08-03T18:20:31.191Z,6.12
2018-08-03T18:23:06.095Z,5.35
2018-08-03T18:25:49.895Z,4.47
2018-08-03T18:28:24.982Z,3.60
2018-08-03T18:30:59.683Z,4.70
2018-08-03T18:33:34.448Z,3.52
2018-08-03T18:36:09.144Z,3.45
2018-08-03T18:38:43.911Z,4.95
2018-08-03T18:41:18.792Z,4.60
2018-08-03T18:43:53.552Z,5.97
2018-08-03T18:46:29.270Z,7.53
2018-08-03T18:49:04.069Z,4.37
2018-08-03T18:51:38.776Z,3.52
2018-08-03T18:54:13.558Z,7.03
2018-08-03T18:56:48.423Z,8.18
2018-08-03T18:59:24.172Z,5.92
2018-08-03T19:02:00.952Z,6.62
2018-08-03T19:04:45.310Z,6.37
2018-08-03T19:07:22.614Z,5.65
2018-08-03T19:09:58.445Z,8.88
2018-08-03T19:12:33.132Z,10.33
2018-08-03T19:15:08.322Z,4.50
2018-08-03T19:17:43.056Z,4.45
2018-08-03T19:20:17.772Z,6.53
2018-08-03T19:22:52.479Z,3.50
2018-08-03T19:25:27.150Z,6.00
2018-08-03T19:28:01.942Z,4.55
2018-08-03T19:30:36.751Z,6.83
2018-08-03T19:33:11.592Z,9.70
2018-08-03T19:35:46.362Z,14.87
2018-08-03T19:38:22.826Z,7.25
2018-08-03T19:40:57.572Z,6.42
2018-08-03T19:43:33.320Z,5.50
2018-08-03T19:46:08.067Z,6.40
2018-08-03T19:48:42.808Z,4.65
2018-08-03T19:51:17.543Z,3.85
2018-08-03T19:53:52.225Z,4.75
2018-08-03T19:56:28.006Z,4.87
2018-08-03T19:59:02.778Z,7.03
2018-08-03T20:01:37.634Z,7.33
2018-08-03T20:04:20.214Z,6.22
2018-08-03T20:06:54.505Z,6.35
2018-08-03T20:09:29.253Z,5.30
2018-08-03T20:12:03.982Z,4.50
2018-08-03T20:14:38.227Z,6.05
2018-08-03T20:17:12.928Z,4.80
2018-08-03T20:19:47.156Z,6.00
2018-08-03T20:22:21.938Z,5.53
2018-08-03T20:24:56.637Z,5.90
2018-08-03T20:27:32.383Z,4.67
2018-08-03T20:30:07.920Z,4.75
2018-08-03T20:32:43.013Z,6.92
2018-08-03T20:35:17.818Z,5.30
2018-08-03T20:37:52.602Z,4.90
2018-08-03T20:40:27.316Z,8.08
2018-08-03T20:43:02.048Z,8.00
2018-08-03T20:45:38.136Z,5.50
2018-08-03T20:48:13.010Z,5.00
2018-08-03T20:50:53.323Z,5.20
2018-08-03T20:53:45.245Z,6.70
2018-08-03T20:56:41.546Z,11.60
2018-08-03T21:02:52.565Z,9.70
2018-08-03T21:05:34.408Z,8.98
2018-08-03T21:08:28.156Z,9.28
2018-08-03T21:11:14.101Z,10.93
2018-08-03T21:13:56.943Z,9.83
2018-08-03T21:16:35.404Z,10.82
2018-08-03T21:19:17.056Z,9.43
2018-08-03T21:28:00.363Z,7.53
2018-08-03T21:33:42.145Z,10.05
2018-08-03T21:36:32.327Z,12.10
2018-08-03T21:39:28.090Z,9.30
2018-08-03T21:42:14.059Z,8.45
2018-08-03T21:48:01.910Z,10.28
2018-08-03T21:50:39.992Z,8.38
2018-08-03T21:53:17.781Z,9.13
2018-08-03T21:55:56.006Z,10.53
2018-08-03T21:58:42.421Z,10.15
2018-08-03T22:01:24.535Z,10.13
2018-08-03T22:04:00.009Z,9.15
2018-08-03T22:06:37.973Z,10.28
2018-08-03T22:09:31.481Z,9.13
2018-08-03T22:12:09.463Z,10.70
2018-08-03T22:17:41.022Z,9.30
2018-08-03T22:20:33.066Z,8.10
2018-08-03T22:23:11.498Z,7.55
2018-08-03T22:25:46.210Z,8.50
2018-08-03T22:28:26.666Z,8.83
2018-08-03T22:31:01.673Z,10.70
2018-08-03T22:33:37.815Z,9.40
2018-08-03T22:36:12.800Z,11.10
2018-08-03T22:38:49.703Z,7.72
2018-08-03T22:41:26.193Z,9.48
2018-08-03T22:44:01.372Z,8.10
2018-08-03T22:46:38.734Z,9.90
2018-08-03T22:49:13.417Z,11.15
2018-08-03T22:51:48.165Z,13.50
2018-08-03T22:54:23.152Z,7.90
2018-08-03T22:56:58.234Z,7.12
2018-08-03T22:59:32.923Z,12.10
2018-08-03T23:02:08.817Z,9.88
2018-08-03T23:04:43.549Z,12.95
2018-08-03T23:07:17.811Z,12.37
2018-08-03T23:09:52.565Z,12.40
2018-08-03T23:12:27.296Z,11.43
2018-08-03T23:15:02.020Z,9.18
2018-08-03T23:17:37.010Z,7.90
2018-08-03T23:20:11.753Z,9.75
2018-08-03T23:22:46.123Z,10.18
2018-08-03T23:25:20.469Z,8.25
2018-08-03T23:27:55.224Z,9.65
2018-08-03T23:30:31.035Z,14.58
2018-08-03T23:33:05.924Z,12.58
2018-08-03T23:35:40.621Z,10.10
2018-08-03T23:38:15.383Z,10.38
2018-08-03T23:40:50.159Z,13.53
2018-08-03T23:43:24.943Z,10.93
2018-08-03T23:46:00.626Z,11.60
2018-08-03T23:48:35.343Z,10.25
2018-08-03T23:51:10.047Z,9.75
2018-08-03T23:53:44.863Z,12.85
2018-08-03T23:56:20.637Z,10.58
2018-08-03T23:58:55.387Z,10.90
